sensor_id;sensor_type;location;lat;lon;timestamp;P1;durP1;ratioP1;P2;durP2;ratioP2
35877;SDS011;21982;49.804;24.072;2022-07-10T00:02:01;4.68;;;2.30;;
35877;SDS011;21982;49.804;24.072;2022-07-10T00:04:26;4.80;;;2.05;;
35877;SDS011;21982;49.804;24.072;2022-07-10T00:06:52;2.92;;;1.80;;
35877;SDS011;21982;49.804;24.072;2022-07-10T00:09:18;5.70;;;1.90;;
35877;SDS011;21982;49.804;24.072;2022-07-10T00:11:43;3.95;;;2.13;;
35877;SDS011;21982;49.804;24.072;2022-07-10T00:14:12;2.95;;;1.70;;
35877;SDS011;21982;49.804;24.072;2022-07-10T00:16:38;4.82;;;2.20;;
35877;SDS011;21982;49.804;24.072;2022-07-10T00:19:03;6.05;;;2.53;;
35877;SDS011;21982;49.804;24.072;2022-07-10T00:21:38;5.65;;;2.97;;
35877;SDS011;21982;49.804;24.072;2022-07-10T00:24:07;6.78;;;3.20;;
35877;SDS011;21982;49.804;24.072;2022-07-10T00:26:38;8.70;;;3.20;;
35877;SDS011;21982;49.804;24.072;2022-07-10T00:29:07;8.45;;;4.50;;
35877;SDS011;21982;49.804;24.072;2022-07-10T00:31:33;5.57;;;3.42;;
35877;SDS011;21982;49.804;24.072;2022-07-10T00:34:00;8.15;;;3.03;;
35877;SDS011;21982;49.804;24.072;2022-07-10T00:36:26;6.57;;;3.80;;
35877;SDS011;21982;49.804;24.072;2022-07-10T00:38:54;6.10;;;2.80;;
35877;SDS011;21982;49.804;24.072;2022-07-10T00:41:23;6.18;;;2.67;;
35877;SDS011;21982;49.804;24.072;2022-07-10T00:43:56;7.70;;;3.30;;
35877;SDS011;21982;49.804;24.072;2022-07-10T00:46:26;3.90;;;2.65;;
35877;SDS011;21982;49.804;24.072;2022-07-10T00:48:53;6.63;;;3.40;;
35877;SDS011;21982;49.804;24.072;2022-07-10T00:51:27;6.15;;;2.70;;
35877;SDS011;21982;49.804;24.072;2022-07-10T00:53:54;4.03;;;2.78;;
35877;SDS011;21982;49.804;24.072;2022-07-10T00:56:32;5.72;;;3.08;;
35877;SDS011;21982;49.804;24.072;2022-07-10T00:58:58;6.93;;;2.63;;
35877;SDS011;21982;49.804;24.072;2022-07-10T01:01:28;6.50;;;2.72;;
35877;SDS011;21982;49.804;24.072;2022-07-10T01:04:00;6.38;;;3.05;;
35877;SDS011;21982;49.804;24.072;2022-07-10T01:06:32;4.53;;;2.42;;
35877;SDS011;21982;49.804;24.072;2022-07-10T01:08:58;4.10;;;2.35;;
35877;SDS011;21982;49.804;24.072;2022-07-10T01:11:24;7.13;;;3.20;;
35877;SDS011;21982;49.804;24.072;2022-07-10T01:13:50;8.27;;;3.72;;
35877;SDS011;21982;49.804;24.072;2022-07-10T01:16:16;6.60;;;3.35;;
35877;SDS011;21982;49.804;24.072;2022-07-10T01:18:43;7.47;;;3.67;;
35877;SDS011;21982;49.804;24.072;2022-07-10T01:21:27;6.53;;;3.53;;
35877;SDS011;21982;49.804;24.072;2022-07-10T01:24:14;6.45;;;3.40;;
35877;SDS011;21982;49.804;24.072;2022-07-10T01:26:52;7.93;;;3.45;;
35877;SDS011;21982;49.804;24.072;2022-07-10T01:29:23;5.90;;;3.58;;
35877;SDS011;21982;49.804;24.072;2022-07-10T01:31:49;6.82;;;3.45;;
35877;SDS011;21982;49.804;24.072;2022-07-10T01:34:15;5.72;;;3.30;;
35877;SDS011;21982;49.804;24.072;2022-07-10T01:36:41;8.77;;;2.95;;
35877;SDS011;21982;49.804;24.072;2022-07-10T01:39:07;5.75;;;2.83;;
35877;SDS011;21982;49.804;24.072;2022-07-10T01:41:36;5.60;;;3.60;;
35877;SDS011;21982;49.804;24.072;2022-07-10T01:44:02;6.80;;;3.40;;
35877;SDS011;21982;49.804;24.072;2022-07-10T01:46:31;8.80;;;3.22;;
35877;SDS011;21982;49.804;24.072;2022-07-10T01:48:57;4.47;;;2.97;;
35877;SDS011;21982;49.804;24.072;2022-07-10T01:51:23;4.85;;;2.83;;
35877;SDS011;21982;49.804;24.072;2022-07-10T01:53:48;4.63;;;2.70;;
35877;SDS011;21982;49.804;24.072;2022-07-10T01:56:17;6.20;;;2.75;;
35877;SDS011;21982;49.804;24.072;2022-07-10T01:58:44;6.28;;;2.60;;
35877;SDS011;21982;49.804;24.072;2022-07-10T02:01:12;6.60;;;2.17;;
35877;SDS011;21982;49.804;24.072;2022-07-10T02:03:39;4.82;;;2.90;;
35877;SDS011;21982;49.804;24.072;2022-07-10T02:06:23;5.53;;;2.20;;
35877;SDS011;21982;49.804;24.072;2022-07-10T02:08:49;6.32;;;2.75;;
35877;SDS011;21982;49.804;24.072;2022-07-10T02:11:23;11.68;;;3.15;;
35877;SDS011;21982;49.804;24.072;2022-07-10T02:13:51;9.32;;;3.45;;
35877;SDS011;21982;49.804;24.072;2022-07-10T02:16:17;7.00;;;3.15;;
35877;SDS011;21982;49.804;24.072;2022-07-10T02:18:43;7.72;;;3.40;;
35877;SDS011;21982;49.804;24.072;2022-07-10T02:21:11;8.52;;;4.05;;
35877;SDS011;21982;49.804;24.072;2022-07-10T02:23:37;8.77;;;5.18;;
35877;SDS011;21982;49.804;24.072;2022-07-10T02:26:06;8.85;;;4.60;;
35877;SDS011;21982;49.804;24.072;2022-07-10T02:28:32;9.27;;;4.07;;
35877;SDS011;21982;49.804;24.072;2022-07-10T02:31:00;9.50;;;3.78;;
35877;SDS011;21982;49.804;24.072;2022-07-10T02:33:26;7.70;;;3.92;;
35877;SDS011;21982;49.804;24.072;2022-07-10T02:35:51;7.50;;;3.40;;
35877;SDS011;21982;49.804;24.072;2022-07-10T02:38:27;5.57;;;3.30;;
35877;SDS011;21982;49.804;24.072;2022-07-10T02:40:53;6.20;;;3.15;;
35877;SDS011;21982;49.804;24.072;2022-07-10T02:43:21;5.40;;;2.80;;
35877;SDS011;21982;49.804;24.072;2022-07-10T02:45:50;5.80;;;3.08;;
35877;SDS011;21982;49.804;24.072;2022-07-10T02:48:17;8.30;;;2.60;;
35877;SDS011;21982;49.804;24.072;2022-07-10T02:50:43;8.45;;;3.63;;
35877;SDS011;21982;49.804;24.072;2022-07-10T02:53:09;5.50;;;3.00;;
35877;SDS011;21982;49.804;24.072;2022-07-10T02:55:38;10.95;;;2.67;;
35877;SDS011;21982;49.804;24.072;2022-07-10T02:58:04;5.65;;;2.70;;
35877;SDS011;21982;49.804;24.072;2022-07-10T03:00:30;4.50;;;2.50;;
35877;SDS011;21982;49.804;24.072;2022-07-10T03:03:06;7.03;;;3.20;;
35877;SDS011;21982;49.804;24.072;2022-07-10T03:05:31;4.60;;;3.13;;
35877;SDS011;21982;49.804;24.072;2022-07-10T03:07:58;4.38;;;2.53;;
35877;SDS011;21982;49.804;24.072;2022-07-10T03:10:30;5.57;;;2.70;;
35877;SDS011;21982;49.804;24.072;2022-07-10T03:12:57;7.25;;;2.33;;
35877;SDS011;21982;49.804;24.072;2022-07-10T03:15:26;5.90;;;2.78;;
35877;SDS011;21982;49.804;24.072;2022-07-10T03:17:55;6.63;;;3.33;;
35877;SDS011;21982;49.804;24.072;2022-07-10T03:20:21;4.88;;;2.80;;
35877;SDS011;21982;49.804;24.072;2022-07-10T03:22:47;5.22;;;2.80;;
35877;SDS011;21982;49.804;24.072;2022-07-10T03:25:16;6.13;;;3.05;;
35877;SDS011;21982;49.804;24.072;2022-07-10T03:27:44;6.32;;;3.03;;
35877;SDS011;21982;49.804;24.072;2022-07-10T03:30:10;5.25;;;2.70;;
35877;SDS011;21982;49.804;24.072;2022-07-10T03:32:36;6.22;;;2.90;;
35877;SDS011;21982;49.804;24.072;2022-07-10T03:35:01;5.35;;;2.92;;
35877;SDS011;21982;49.804;24.072;2022-07-10T03:37:27;8.57;;;3.08;;
35877;SDS011;21982;49.804;24.072;2022-07-10T03:39:53;6.35;;;3.28;;
35877;SDS011;21982;49.804;24.072;2022-07-10T03:42:31;12.50;;;3.45;;
35877;SDS011;21982;49.804;24.072;2022-07-10T03:44:56;6.50;;;3.10;;
35877;SDS011;21982;49.804;24.072;2022-07-10T03:47:25;8.90;;;4.00;;
35877;SDS011;21982;49.804;24.072;2022-07-10T03:49:50;6.55;;;3.50;;
35877;SDS011;21982;49.804;24.072;2022-07-10T03:52:17;7.80;;;3.75;;
35877;SDS011;21982;49.804;24.072;2022-07-10T03:54:45;6.15;;;3.58;;
35877;SDS011;21982;49.804;24.072;2022-07-10T03:57:14;6.85;;;3.85;;
35877;SDS011;21982;49.804;24.072;2022-07-10T04:00:01;7.32;;;4.07;;
35877;SDS011;21982;49.804;24.072;2022-07-10T04:02:36;8.30;;;4.20;;
35877;SDS011;21982;49.804;24.072;2022-07-10T04:05:04;13.10;;;4.85;;
35877;SDS011;21982;49.804;24.072;2022-07-10T04:07:34;8.18;;;4.55;;
35877;SDS011;21982;49.804;24.072;2022-07-10T04:10:00;8.23;;;4.05;;
35877;SDS011;21982;49.804;24.072;2022-07-10T04:12:27;9.43;;;5.03;;
35877;SDS011;21982;49.804;24.072;2022-07-10T04:14:53;9.63;;;4.57;;
35877;SDS011;21982;49.804;24.072;2022-07-10T04:17:20;8.68;;;5.07;;
35877;SDS011;21982;49.804;24.072;2022-07-10T04:19:54;8.90;;;5.18;;
35877;SDS011;21982;49.804;24.072;2022-07-10T04:22:20;11.50;;;5.80;;
35877;SDS011;21982;49.804;24.072;2022-07-10T04:24:46;15.55;;;6.05;;
35877;SDS011;21982;49.804;24.072;2022-07-10T04:27:13;9.88;;;4.95;;
35877;SDS011;21982;49.804;24.072;2022-07-10T04:29:42;9.43;;;5.05;;
35877;SDS011;21982;49.804;24.072;2022-07-10T04:32:09;10.55;;;4.93;;
35877;SDS011;21982;49.804;24.072;2022-07-10T04:34:38;10.95;;;5.20;;
35877;SDS011;21982;49.804;24.072;2022-07-10T04:37:04;10.90;;;4.70;;
35877;SDS011;21982;49.804;24.072;2022-07-10T04:39:32;8.40;;;4.95;;
35877;SDS011;21982;49.804;24.072;2022-07-10T04:42:02;9.23;;;4.60;;
35877;SDS011;21982;49.804;24.072;2022-07-10T04:44:32;10.70;;;5.22;;
35877;SDS011;21982;49.804;24.072;2022-07-10T04:47:01;9.48;;;4.20;;
35877;SDS011;21982;49.804;24.072;2022-07-10T04:49:34;7.68;;;3.83;;
35877;SDS011;21982;49.804;24.072;2022-07-10T04:52:03;10.30;;;4.43;;
35877;SDS011;21982;49.804;24.072;2022-07-10T04:54:32;6.68;;;3.92;;
35877;SDS011;21982;49.804;24.072;2022-07-10T04:56:58;10.38;;;4.25;;
35877;SDS011;21982;49.804;24.072;2022-07-10T04:59:25;5.43;;;3.03;;
35877;SDS011;21982;49.804;24.072;2022-07-10T05:01:51;5.45;;;3.63;;
35877;SDS011;21982;49.804;24.072;2022-07-10T05:04:17;7.72;;;3.45;;
35877;SDS011;21982;49.804;24.072;2022-07-10T05:09:20;7.88;;;2.78;;
35877;SDS011;21982;49.804;24.072;2022-07-10T05:11:49;6.55;;;2.72;;
35877;SDS011;21982;49.804;24.072;2022-07-10T05:14:17;6.63;;;2.70;;
35877;SDS011;21982;49.804;24.072;2022-07-10T05:16:43;4.50;;;3.40;;
35877;SDS011;21982;49.804;24.072;2022-07-10T05:19:09;6.07;;;2.20;;
35877;SDS011;21982;49.804;24.072;2022-07-10T05:21:35;8.02;;;2.80;;
35877;SDS011;21982;49.804;24.072;2022-07-10T05:24:01;6.43;;;2.72;;
35877;SDS011;21982;49.804;24.072;2022-07-10T05:26:26;5.30;;;2.85;;
35877;SDS011;21982;49.804;24.072;2022-07-10T05:28:52;4.82;;;2.75;;
35877;SDS011;21982;49.804;24.072;2022-07-10T05:31:18;4.90;;;2.60;;
35877;SDS011;21982;49.804;24.072;2022-07-10T05:33:44;5.53;;;2.47;;
35877;SDS011;21982;49.804;24.072;2022-07-10T05:36:09;8.60;;;2.85;;
35877;SDS011;21982;49.804;24.072;2022-07-10T05:38:38;6.28;;;2.33;;
35877;SDS011;21982;49.804;24.072;2022-07-10T05:41:04;5.03;;;2.60;;
35877;SDS011;21982;49.804;24.072;2022-07-10T05:43:30;6.18;;;2.47;;
35877;SDS011;21982;49.804;24.072;2022-07-10T05:46:01;4.88;;;2.55;;
35877;SDS011;21982;49.804;24.072;2022-07-10T05:48:40;6.28;;;2.58;;
35877;SDS011;21982;49.804;24.072;2022-07-10T05:51:06;5.05;;;2.38;;
35877;SDS011;21982;49.804;24.072;2022-07-10T05:53:34;7.40;;;2.50;;
35877;SDS011;21982;49.804;24.072;2022-07-10T05:56:00;6.03;;;2.33;;
35877;SDS011;21982;49.804;24.072;2022-07-10T05:58:27;6.20;;;2.35;;
35877;SDS011;21982;49.804;24.072;2022-07-10T06:00:58;8.32;;;2.28;;
35877;SDS011;21982;49.804;24.072;2022-07-10T06:03:24;5.70;;;2.10;;
35877;SDS011;21982;49.804;24.072;2022-07-10T06:05:49;4.32;;;2.00;;
35877;SDS011;21982;49.804;24.072;2022-07-10T06:08:15;5.45;;;2.20;;
35877;SDS011;21982;49.804;24.072;2022-07-10T06:10:44;5.72;;;1.90;;
35877;SDS011;21982;49.804;24.072;2022-07-10T06:13:10;3.38;;;1.90;;
35877;SDS011;21982;49.804;24.072;2022-07-10T06:15:39;3.42;;;1.90;;
35877;SDS011;21982;49.804;24.072;2022-07-10T06:18:05;6.35;;;2.10;;
35877;SDS011;21982;49.804;24.072;2022-07-10T06:20:31;3.92;;;1.70;;
35877;SDS011;21982;49.804;24.072;2022-07-10T06:22:57;5.78;;;1.75;;
35877;SDS011;21982;49.804;24.072;2022-07-10T06:25:23;6.18;;;2.15;;
35877;SDS011;21982;49.804;24.072;2022-07-10T06:27:52;5.53;;;2.40;;
35877;SDS011;21982;49.804;24.072;2022-07-10T06:30:18;3.50;;;1.83;;
35877;SDS011;21982;49.804;24.072;2022-07-10T06:32:44;5.68;;;1.77;;
35877;SDS011;21982;49.804;24.072;2022-07-10T06:35:09;5.80;;;2.13;;
35877;SDS011;21982;49.804;24.072;2022-07-10T06:37:35;5.30;;;2.70;;
35877;SDS011;21982;49.804;24.072;2022-07-10T06:40:02;5.13;;;2.15;;
35877;SDS011;21982;49.804;24.072;2022-07-10T06:42:34;5.82;;;2.20;;
35877;SDS011;21982;49.804;24.072;2022-07-10T06:45:02;4.20;;;2.28;;
35877;SDS011;21982;49.804;24.072;2022-07-10T06:47:31;6.60;;;2.17;;
35877;SDS011;21982;49.804;24.072;2022-07-10T06:50:16;6.15;;;2.20;;
35877;SDS011;21982;49.804;24.072;2022-07-10T06:52:47;7.00;;;2.10;;
35877;SDS011;21982;49.804;24.072;2022-07-10T06:55:13;5.80;;;1.73;;
35877;SDS011;21982;49.804;24.072;2022-07-10T06:57:39;3.25;;;1.55;;
35877;SDS011;21982;49.804;24.072;2022-07-10T07:00:09;3.60;;;1.60;;
35877;SDS011;21982;49.804;24.072;2022-07-10T07:02:36;3.50;;;1.90;;
35877;SDS011;21982;49.804;24.072;2022-07-10T07:05:05;6.50;;;2.10;;
35877;SDS011;21982;49.804;24.072;2022-07-10T07:07:37;5.68;;;1.90;;
35877;SDS011;21982;49.804;24.072;2022-07-10T07:10:06;7.30;;;2.20;;
35877;SDS011;21982;49.804;24.072;2022-07-10T07:12:35;4.18;;;1.90;;
35877;SDS011;21982;49.804;24.072;2022-07-10T07:15:02;3.85;;;1.73;;
35877;SDS011;21982;49.804;24.072;2022-07-10T07:17:28;9.57;;;3.00;;
35877;SDS011;21982;49.804;24.072;2022-07-10T07:20:11;9.05;;;2.47;;
35877;SDS011;21982;49.804;24.072;2022-07-10T07:22:59;5.68;;;2.05;;
35877;SDS011;21982;49.804;24.072;2022-07-10T07:25:38;3.22;;;1.95;;
35877;SDS011;21982;49.804;24.072;2022-07-10T07:28:07;4.45;;;2.10;;
35877;SDS011;21982;49.804;24.072;2022-07-10T07:30:34;5.63;;;2.20;;
35877;SDS011;21982;49.804;24.072;2022-07-10T07:33:00;3.80;;;1.50;;
35877;SDS011;21982;49.804;24.072;2022-07-10T07:35:26;3.90;;;1.90;;
35877;SDS011;21982;49.804;24.072;2022-07-10T07:37:54;5.78;;;2.00;;
35877;SDS011;21982;49.804;24.072;2022-07-10T07:40:20;3.63;;;2.28;;
35877;SDS011;21982;49.804;24.072;2022-07-10T07:42:51;4.65;;;2.10;;
35877;SDS011;21982;49.804;24.072;2022-07-10T07:45:19;4.90;;;2.00;;
35877;SDS011;21982;49.804;24.072;2022-07-10T07:47:47;5.78;;;2.53;;
35877;SDS011;21982;49.804;24.072;2022-07-10T07:50:15;4.72;;;2.00;;
35877;SDS011;21982;49.804;24.072;2022-07-10T07:52:42;3.30;;;1.85;;
35877;SDS011;21982;49.804;24.072;2022-07-10T07:55:08;5.15;;;1.77;;
35877;SDS011;21982;49.804;24.072;2022-07-10T07:57:35;4.18;;;2.55;;
35877;SDS011;21982;49.804;24.072;2022-07-10T08:00:03;7.68;;;2.70;;
35877;SDS011;21982;49.804;24.072;2022-07-10T08:02:30;3.72;;;2.08;;
35877;SDS011;21982;49.804;24.072;2022-07-10T08:04:59;5.22;;;2.45;;
35877;SDS011;21982;49.804;24.072;2022-07-10T08:10:33;4.85;;;2.28;;
35877;SDS011;21982;49.804;24.072;2022-07-10T08:13:03;4.57;;;2.10;;
35877;SDS011;21982;49.804;24.072;2022-07-10T08:15:34;7.72;;;2.30;;
35877;SDS011;21982;49.804;24.072;2022-07-10T08:18:00;3.05;;;2.03;;
35877;SDS011;21982;49.804;24.072;2022-07-10T08:20:29;3.92;;;2.03;;
35877;SDS011;21982;49.804;24.072;2022-07-10T08:22:56;3.00;;;1.88;;
35877;SDS011;21982;49.804;24.072;2022-07-10T08:25:29;4.72;;;2.35;;
35877;SDS011;21982;49.804;24.072;2022-07-10T08:28:02;3.30;;;2.08;;
35877;SDS011;21982;49.804;24.072;2022-07-10T08:30:36;4.90;;;1.73;;
35877;SDS011;21982;49.804;24.072;2022-07-10T08:33:03;6.55;;;2.00;;
35877;SDS011;21982;49.804;24.072;2022-07-10T08:35:32;3.60;;;1.73;;
35877;SDS011;21982;49.804;24.072;2022-07-10T08:38:01;4.68;;;1.70;;
35877;SDS011;21982;49.804;24.072;2022-07-10T08:40:33;5.68;;;1.45;;
35877;SDS011;21982;49.804;24.072;2022-07-10T08:43:05;4.57;;;2.00;;
35877;SDS011;21982;49.804;24.072;2022-07-10T08:45:32;7.93;;;2.35;;
35877;SDS011;21982;49.804;24.072;2022-07-10T08:48:02;4.18;;;1.73;;
35877;SDS011;21982;49.804;24.072;2022-07-10T08:50:32;4.75;;;2.03;;
35877;SDS011;21982;49.804;24.072;2022-07-10T08:55:40;3.78;;;2.10;;
35877;SDS011;21982;49.804;24.072;2022-07-10T08:58:09;4.45;;;2.13;;
35877;SDS011;21982;49.804;24.072;2022-07-10T09:00:45;3.90;;;2.33;;
35877;SDS011;21982;49.804;24.072;2022-07-10T09:03:13;5.78;;;2.72;;
35877;SDS011;21982;49.804;24.072;2022-07-10T09:05:40;4.47;;;2.22;;
35877;SDS011;21982;49.804;24.072;2022-07-10T09:08:27;3.58;;;1.65;;
35877;SDS011;21982;49.804;24.072;2022-07-10T09:11:18;4.80;;;2.28;;
35877;SDS011;21982;49.804;24.072;2022-07-10T09:13:55;5.78;;;2.97;;
35877;SDS011;21982;49.804;24.072;2022-07-10T09:16:27;7.60;;;2.75;;
35877;SDS011;21982;49.804;24.072;2022-07-10T09:18:57;6.95;;;2.33;;
35877;SDS011;21982;49.804;24.072;2022-07-10T09:21:39;9.40;;;2.05;;
35877;SDS011;21982;49.804;24.072;2022-07-10T09:24:08;6.38;;;1.92;;
35877;SDS011;21982;49.804;24.072;2022-07-10T09:29:31;3.28;;;1.85;;
35877;SDS011;21982;49.804;24.072;2022-07-10T09:32:20;5.13;;;1.75;;
35877;SDS011;21982;49.804;24.072;2022-07-10T09:34:58;3.05;;;1.60;;
35877;SDS011;21982;49.804;24.072;2022-07-10T09:37:42;5.13;;;2.08;;
35877;SDS011;21982;49.804;24.072;2022-07-10T09:40:11;4.75;;;1.95;;
35877;SDS011;21982;49.804;24.072;2022-07-10T09:42:37;3.13;;;1.40;;
35877;SDS011;21982;49.804;24.072;2022-07-10T09:47:38;3.80;;;1.83;;
35877;SDS011;21982;49.804;24.072;2022-07-10T09:50:04;6.82;;;1.98;;
35877;SDS011;21982;49.804;24.072;2022-07-10T09:52:51;5.35;;;1.80;;
35877;SDS011;21982;49.804;24.072;2022-07-10T09:55:45;4.60;;;1.42;;
35877;SDS011;21982;49.804;24.072;2022-07-10T09:58:13;7.63;;;2.35;;
35877;SDS011;21982;49.804;24.072;2022-07-10T10:00:41;8.02;;;2.58;;
35877;SDS011;21982;49.804;24.072;2022-07-10T10:03:11;6.00;;;1.77;;
35877;SDS011;21982;49.804;24.072;2022-07-10T10:11:07;4.93;;;1.95;;
35877;SDS011;21982;49.804;24.072;2022-07-10T10:13:40;6.15;;;2.60;;
35877;SDS011;21982;49.804;24.072;2022-07-10T10:16:14;3.17;;;1.80;;
35877;SDS011;21982;49.804;24.072;2022-07-10T10:18:41;9.88;;;2.90;;
35877;SDS011;21982;49.804;24.072;2022-07-10T10:21:30;7.20;;;2.95;;
35877;SDS011;21982;49.804;24.072;2022-07-10T10:24:04;8.73;;;3.28;;
35877;SDS011;21982;49.804;24.072;2022-07-10T10:26:42;6.45;;;2.30;;
35877;SDS011;21982;49.804;24.072;2022-07-10T10:29:09;12.18;;;3.35;;
35877;SDS011;21982;49.804;24.072;2022-07-10T10:31:38;5.18;;;2.03;;
35877;SDS011;21982;49.804;24.072;2022-07-10T10:34:10;4.78;;;1.42;;
35877;SDS011;21982;49.804;24.072;2022-07-10T10:41:51;4.20;;;1.27;;
35877;SDS011;21982;49.804;24.072;2022-07-10T10:44:28;3.08;;;1.17;;
35877;SDS011;21982;49.804;24.072;2022-07-10T10:47:03;2.08;;;1.05;;
35877;SDS011;21982;49.804;24.072;2022-07-10T10:49:50;2.67;;;0.85;;
35877;SDS011;21982;49.804;24.072;2022-07-10T10:52:29;6.72;;;1.15;;
35877;SDS011;21982;49.804;24.072;2022-07-10T10:54:59;4.57;;;1.73;;
35877;SDS011;21982;49.804;24.072;2022-07-10T11:00:02;3.78;;;1.50;;
35877;SDS011;21982;49.804;24.072;2022-07-10T11:10:44;3.72;;;1.65;;
35877;SDS011;21982;49.804;24.072;2022-07-10T11:13:16;2.97;;;1.63;;
35877;SDS011;21982;49.804;24.072;2022-07-10T11:15:47;3.03;;;1.33;;
35877;SDS011;21982;49.804;24.072;2022-07-10T11:18:18;5.78;;;1.58;;
35877;SDS011;21982;49.804;24.072;2022-07-10T11:20:47;4.32;;;1.63;;
35877;SDS011;21982;49.804;24.072;2022-07-10T11:26:10;2.42;;;1.50;;
35877;SDS011;21982;49.804;24.072;2022-07-10T11:31:14;3.28;;;1.00;;
35877;SDS011;21982;49.804;24.072;2022-07-10T11:33:41;1.75;;;0.90;;
35877;SDS011;21982;49.804;24.072;2022-07-10T11:36:13;2.38;;;1.05;;
35877;SDS011;21982;49.804;24.072;2022-07-10T11:38:42;12.88;;;1.52;;
35877;SDS011;21982;49.804;24.072;2022-07-10T11:41:15;4.53;;;1.02;;
35877;SDS011;21982;49.804;24.072;2022-07-10T11:43:54;5.15;;;0.90;;
35877;SDS011;21982;49.804;24.072;2022-07-10T11:46:22;10.18;;;1.10;;
35877;SDS011;21982;49.804;24.072;2022-07-10T11:48:55;6.47;;;1.25;;
35877;SDS011;21982;49.804;24.072;2022-07-10T11:51:32;7.78;;;1.52;;
35877;SDS011;21982;49.804;24.072;2022-07-10T11:56:30;2.65;;;0.65;;
35877;SDS011;21982;49.804;24.072;2022-07-10T11:59:11;4.68;;;1.02;;
35877;SDS011;21982;49.804;24.072;2022-07-10T12:01:50;3.85;;;0.90;;
35877;SDS011;21982;49.804;24.072;2022-07-10T12:04:28;2.72;;;0.95;;
35877;SDS011;21982;49.804;24.072;2022-07-10T12:07:00;3.20;;;0.98;;
35877;SDS011;21982;49.804;24.072;2022-07-10T12:09:34;8.65;;;1.20;;
35877;SDS011;21982;49.804;24.072;2022-07-10T12:12:06;1.67;;;1.15;;
35877;SDS011;21982;49.804;24.072;2022-07-10T12:14:41;1.17;;;0.85;;
35877;SDS011;21982;49.804;24.072;2022-07-10T12:17:28;3.45;;;1.20;;
35877;SDS011;21982;49.804;24.072;2022-07-10T12:23:10;3.47;;;1.33;;
35877;SDS011;21982;49.804;24.072;2022-07-10T12:25:53;3.85;;;1.52;;
35877;SDS011;21982;49.804;24.072;2022-07-10T12:28:23;3.47;;;2.33;;
35877;SDS011;21982;49.804;24.072;2022-07-10T12:30:51;4.95;;;1.73;;
35877;SDS011;21982;49.804;24.072;2022-07-10T12:33:21;4.47;;;1.50;;
35877;SDS011;21982;49.804;24.072;2022-07-10T12:35:55;4.35;;;1.30;;
35877;SDS011;21982;49.804;24.072;2022-07-10T12:38:26;3.05;;;1.00;;
35877;SDS011;21982;49.804;24.072;2022-07-10T12:41:11;6.32;;;1.65;;
35877;SDS011;21982;49.804;24.072;2022-07-10T12:43:45;2.97;;;1.25;;
35877;SDS011;21982;49.804;24.072;2022-07-10T12:46:18;4.40;;;1.50;;
35877;SDS011;21982;49.804;24.072;2022-07-10T12:49:03;4.38;;;1.60;;
35877;SDS011;21982;49.804;24.072;2022-07-10T12:51:46;2.83;;;1.50;;
35877;SDS011;21982;49.804;24.072;2022-07-10T12:57:00;4.65;;;1.30;;
35877;SDS011;21982;49.804;24.072;2022-07-10T12:59:37;3.47;;;1.00;;
35877;SDS011;21982;49.804;24.072;2022-07-10T13:02:19;5.28;;;1.45;;
35877;SDS011;21982;49.804;24.072;2022-07-10T13:05:32;3.38;;;1.02;;
35877;SDS011;21982;49.804;24.072;2022-07-10T13:07:49;1.92;;;1.15;;
35877;SDS011;21982;49.804;24.072;2022-07-10T13:10:26;4.35;;;1.27;;
35877;SDS011;21982;49.804;24.072;2022-07-10T13:13:16;2.58;;;1.10;;
35877;SDS011;21982;49.804;24.072;2022-07-10T13:15:42;3.97;;;1.27;;
35877;SDS011;21982;49.804;24.072;2022-07-10T13:18:13;3.53;;;1.20;;
35877;SDS011;21982;49.804;24.072;2022-07-10T13:20:49;4.47;;;1.27;;
35877;SDS011;21982;49.804;24.072;2022-07-10T13:25:53;2.70;;;1.05;;
35877;SDS011;21982;49.804;24.072;2022-07-10T13:28:30;2.10;;;1.10;;
35877;SDS011;21982;49.804;24.072;2022-07-10T13:31:03;2.28;;;1.38;;
35877;SDS011;21982;49.804;24.072;2022-07-10T13:33:35;3.95;;;1.40;;
35877;SDS011;21982;49.804;24.072;2022-07-10T13:36:03;3.78;;;1.00;;
35877;SDS011;21982;49.804;24.072;2022-07-10T13:38:38;1.85;;;0.90;;
35877;SDS011;21982;49.804;24.072;2022-07-10T13:43:40;1.92;;;1.00;;
35877;SDS011;21982;49.804;24.072;2022-07-10T13:46:12;1.08;;;0.75;;
35877;SDS011;21982;49.804;24.072;2022-07-10T13:48:38;2.03;;;0.73;;
35877;SDS011;21982;49.804;24.072;2022-07-10T13:53:48;2.28;;;1.00;;
35877;SDS011;21982;49.804;24.072;2022-07-10T13:56:22;1.80;;;1.02;;
35877;SDS011;21982;49.804;24.072;2022-07-10T13:58:51;1.88;;;0.90;;
35877;SDS011;21982;49.804;24.072;2022-07-10T14:01:17;2.38;;;0.90;;
35877;SDS011;21982;49.804;24.072;2022-07-10T14:03:46;6.82;;;3.58;;
35877;SDS011;21982;49.804;24.072;2022-07-10T14:06:22;4.50;;;1.65;;
35877;SDS011;21982;49.804;24.072;2022-07-10T14:09:04;2.75;;;1.50;;
35877;SDS011;21982;49.804;24.072;2022-07-10T14:11:33;2.33;;;1.10;;
35877;SDS011;21982;49.804;24.072;2022-07-10T14:14:04;2.40;;;1.10;;
35877;SDS011;21982;49.804;24.072;2022-07-10T14:16:43;3.03;;;1.70;;
35877;SDS011;21982;49.804;24.072;2022-07-10T14:19:15;4.57;;;1.70;;
35877;SDS011;21982;49.804;24.072;2022-07-10T14:21:47;1.88;;;0.93;;
35877;SDS011;21982;49.804;24.072;2022-07-10T14:24:19;7.70;;;2.78;;
35877;SDS011;21982;49.804;24.072;2022-07-10T14:26:48;6.30;;;2.58;;
35877;SDS011;21982;49.804;24.072;2022-07-10T14:29:27;5.63;;;1.85;;
35877;SDS011;21982;49.804;24.072;2022-07-10T14:32:04;6.07;;;2.05;;
35877;SDS011;21982;49.804;24.072;2022-07-10T14:34:33;5.20;;;2.05;;
35877;SDS011;21982;49.804;24.072;2022-07-10T14:36:59;2.88;;;1.80;;
35877;SDS011;21982;49.804;24.072;2022-07-10T14:39:28;3.67;;;2.03;;
35877;SDS011;21982;49.804;24.072;2022-07-10T14:41:57;3.55;;;2.22;;
35877;SDS011;21982;49.804;24.072;2022-07-10T14:44:33;3.85;;;1.40;;
35877;SDS011;21982;49.804;24.072;2022-07-10T14:46:58;3.70;;;1.40;;
35877;SDS011;21982;49.804;24.072;2022-07-10T14:49:31;1.90;;;1.00;;
35877;SDS011;21982;49.804;24.072;2022-07-10T15:08:18;14.38;;;5.60;;
35877;SDS011;21982;49.804;24.072;2022-07-10T15:10:50;3.35;;;1.33;;
35877;SDS011;21982;49.804;24.072;2022-07-10T15:13:20;3.58;;;1.98;;
35877;SDS011;21982;49.804;24.072;2022-07-10T15:15:46;7.22;;;2.78;;
35877;SDS011;21982;49.804;24.072;2022-07-10T15:18:17;5.50;;;2.38;;
35877;SDS011;21982;49.804;24.072;2022-07-10T15:20:44;11.65;;;4.15;;
35877;SDS011;21982;49.804;24.072;2022-07-10T15:23:11;13.75;;;5.57;;
35877;SDS011;21982;49.804;24.072;2022-07-10T15:25:54;12.05;;;5.10;;
35877;SDS011;21982;49.804;24.072;2022-07-10T15:28:23;9.48;;;4.93;;
35877;SDS011;21982;49.804;24.072;2022-07-10T15:30:53;6.00;;;3.65;;
35877;SDS011;21982;49.804;24.072;2022-07-10T15:33:22;4.57;;;1.90;;
35877;SDS011;21982;49.804;24.072;2022-07-10T15:35:48;2.10;;;1.23;;
35877;SDS011;21982;49.804;24.072;2022-07-10T15:38:15;6.28;;;1.58;;
35877;SDS011;21982;49.804;24.072;2022-07-10T15:40:49;3.95;;;1.30;;
35877;SDS011;21982;49.804;24.072;2022-07-10T15:43:24;1.95;;;1.30;;
35877;SDS011;21982;49.804;24.072;2022-07-10T15:45:55;3.70;;;1.30;;
35877;SDS011;21982;49.804;24.072;2022-07-10T15:48:27;4.22;;;1.70;;
35877;SDS011;21982;49.804;24.072;2022-07-10T15:50:59;2.90;;;1.33;;
35877;SDS011;21982;49.804;24.072;2022-07-10T15:53:27;3.75;;;1.85;;
35877;SDS011;21982;49.804;24.072;2022-07-10T15:55:53;3.05;;;1.50;;
35877;SDS011;21982;49.804;24.072;2022-07-10T16:01:04;3.15;;;1.95;;
35877;SDS011;21982;49.804;24.072;2022-07-10T16:03:30;1.70;;;1.17;;
35877;SDS011;21982;49.804;24.072;2022-07-10T16:06:09;2.83;;;1.58;;
35877;SDS011;21982;49.804;24.072;2022-07-10T16:08:40;2.53;;;1.10;;